sensor_id;sensor_type;location;lat;lon;timestamp;P1;durP1;ratioP1;P2;durP2;ratioP2
21424;SDS011;10873;51.132;16.848;2022-07-10T00:00:06;3.85;;;2.50;;
21424;SDS011;10873;51.132;16.848;2022-07-10T00:02:54;2.92;;;2.40;;
21424;SDS011;10873;51.132;16.848;2022-07-10T00:05:21;2.25;;;1.85;;
21424;SDS011;10873;51.132;16.848;2022-07-10T00:07:48;3.05;;;2.35;;
21424;SDS011;10873;51.132;16.848;2022-07-10T00:10:16;2.35;;;2.15;;
21424;SDS011;10873;51.132;16.848;2022-07-10T00:12:44;2.40;;;2.20;;
21424;SDS011;10873;51.132;16.848;2022-07-10T00:15:10;3.13;;;2.50;;
21424;SDS011;10873;51.132;16.848;2022-07-10T00:17:37;2.42;;;1.98;;
21424;SDS011;10873;51.132;16.848;2022-07-10T00:20:05;2.15;;;1.95;;
21424;SDS011;10873;51.132;16.848;2022-07-10T00:22:32;2.25;;;2.05;;
21424;SDS011;10873;51.132;16.848;2022-07-10T00:25:00;2.22;;;2.03;;
21424;SDS011;10873;51.132;16.848;2022-07-10T00:27:27;2.67;;;2.25;;
21424;SDS011;10873;51.132;16.848;2022-07-10T00:29:53;2.47;;;2.08;;
21424;SDS011;10873;51.132;16.848;2022-07-10T00:32:19;3.25;;;2.30;;
21424;SDS011;10873;51.132;16.848;2022-07-10T00:34:45;2.20;;;2.00;;
21424;SDS011;10873;51.132;16.848;2022-07-10T00:37:11;2.72;;;2.20;;
21424;SDS011;10873;51.132;16.848;2022-07-10T00:39:37;1.95;;;1.85;;
21424;SDS011;10873;51.132;16.848;2022-07-10T00:42:05;2.75;;;1.90;;
21424;SDS011;10873;51.132;16.848;2022-07-10T00:44:34;1.98;;;1.77;;
21424;SDS011;10873;51.132;16.848;2022-07-10T00:47:01;4.13;;;1.85;;
21424;SDS011;10873;51.132;16.848;2022-07-10T00:49:27;2.35;;;1.90;;
21424;SDS011;10873;51.132;16.848;2022-07-10T00:51:53;2.03;;;1.77;;
21424;SDS011;10873;51.132;16.848;2022-07-10T00:54:20;2.10;;;1.90;;
21424;SDS011;10873;51.132;16.848;2022-07-10T00:56:46;2.17;;;2.00;;
21424;SDS011;10873;51.132;16.848;2022-07-10T00:59:12;1.90;;;1.80;;
21424;SDS011;10873;51.132;16.848;2022-07-10T01:01:40;1.98;;;1.77;;
21424;SDS011;10873;51.132;16.848;2022-07-10T01:04:06;3.00;;;1.95;;
21424;SDS011;10873;51.132;16.848;2022-07-10T01:06:32;2.65;;;1.75;;
21424;SDS011;10873;51.132;16.848;2022-07-10T01:08:58;1.77;;;1.67;;
21424;SDS011;10873;51.132;16.848;2022-07-10T01:11:24;1.70;;;1.60;;
21424;SDS011;10873;51.132;16.848;2022-07-10T01:13:50;2.08;;;1.85;;
21424;SDS011;10873;51.132;16.848;2022-07-10T01:16:16;1.90;;;1.80;;
21424;SDS011;10873;51.132;16.848;2022-07-10T01:18:44;2.15;;;1.70;;
21424;SDS011;10873;51.132;16.848;2022-07-10T01:21:25;2.33;;;1.63;;
21424;SDS011;10873;51.132;16.848;2022-07-10T01:23:51;2.85;;;1.92;;
21424;SDS011;10873;51.132;16.848;2022-07-10T01:26:18;2.80;;;1.73;;
21424;SDS011;10873;51.132;16.848;2022-07-10T01:28:46;2.55;;;1.90;;
21424;SDS011;10873;51.132;16.848;2022-07-10T01:31:14;1.75;;;1.65;;
21424;SDS011;10873;51.132;16.848;2022-07-10T01:33:40;2.45;;;1.73;;
21424;SDS011;10873;51.132;16.848;2022-07-10T01:36:06;2.38;;;2.00;;
21424;SDS011;10873;51.132;16.848;2022-07-10T01:38:34;1.80;;;1.58;;
21424;SDS011;10873;51.132;16.848;2022-07-10T01:41:00;1.70;;;1.50;;
21424;SDS011;10873;51.132;16.848;2022-07-10T01:43:26;2.05;;;1.90;;
21424;SDS011;10873;51.132;16.848;2022-07-10T01:45:52;2.53;;;1.70;;
21424;SDS011;10873;51.132;16.848;2022-07-10T01:48:19;2.35;;;1.65;;
21424;SDS011;10873;51.132;16.848;2022-07-10T01:50:45;2.85;;;1.77;;
21424;SDS011;10873;51.132;16.848;2022-07-10T01:53:11;1.85;;;1.45;;
21424;SDS011;10873;51.132;16.848;2022-07-10T01:55:38;2.13;;;1.35;;
21424;SDS011;10873;51.132;16.848;2022-07-10T01:58:04;1.90;;;1.67;;
21424;SDS011;10873;51.132;16.848;2022-07-10T02:00:30;2.13;;;1.67;;
21424;SDS011;10873;51.132;16.848;2022-07-10T02:02:56;1.60;;;1.50;;
21424;SDS011;10873;51.132;16.848;2022-07-10T02:05:41;2.17;;;1.80;;
21424;SDS011;10873;51.132;16.848;2022-07-10T02:08:07;1.52;;;1.42;;
21424;SDS011;10873;51.132;16.848;2022-07-10T02:10:33;2.13;;;1.58;;
21424;SDS011;10873;51.132;16.848;2022-07-10T02:13:00;1.80;;;1.70;;
21424;SDS011;10873;51.132;16.848;2022-07-10T02:15:27;2.58;;;1.70;;
21424;SDS011;10873;51.132;16.848;2022-07-10T02:17:53;2.13;;;1.80;;
21424;SDS011;10873;51.132;16.848;2022-07-10T02:20:19;2.13;;;1.50;;
21424;SDS011;10873;51.132;16.848;2022-07-10T02:22:45;1.65;;;1.55;;
21424;SDS011;10873;51.132;16.848;2022-07-10T02:25:11;2.22;;;1.73;;
21424;SDS011;10873;51.132;16.848;2022-07-10T02:27:37;1.58;;;1.48;;
21424;SDS011;10873;51.132;16.848;2022-07-10T02:30:05;1.65;;;1.50;;
21424;SDS011;10873;51.132;16.848;2022-07-10T02:32:32;2.22;;;1.65;;
21424;SDS011;10873;51.132;16.848;2022-07-10T02:34:58;1.65;;;1.40;;
21424;SDS011;10873;51.132;16.848;2022-07-10T02:37:24;2.85;;;1.50;;
21424;SDS011;10873;51.132;16.848;2022-07-10T02:39:50;1.73;;;1.50;;
21424;SDS011;10873;51.132;16.848;2022-07-10T02:42:16;1.48;;;1.30;;
21424;SDS011;10873;51.132;16.848;2022-07-10T02:44:43;1.42;;;1.33;;
21424;SDS011;10873;51.132;16.848;2022-07-10T02:47:10;2.40;;;1.33;;
21424;SDS011;10873;51.132;16.848;2022-07-10T02:49:36;1.88;;;1.50;;
21424;SDS011;10873;51.132;16.848;2022-07-10T02:52:02;2.28;;;1.50;;
21424;SDS011;10873;51.132;16.848;2022-07-10T02:54:30;2.20;;;1.75;;
21424;SDS011;10873;51.132;16.848;2022-07-10T02:56:56;1.50;;;1.40;;
21424;SDS011;10873;51.132;16.848;2022-07-10T02:59:22;2.05;;;1.50;;
21424;SDS011;10873;51.132;16.848;2022-07-10T03:01:48;2.30;;;1.80;;
21424;SDS011;10873;51.132;16.848;2022-07-10T03:04:16;3.25;;;1.33;;
21424;SDS011;10873;51.132;16.848;2022-07-10T03:06:42;1.45;;;1.33;;
21424;SDS011;10873;51.132;16.848;2022-07-10T03:09:08;1.50;;;1.40;;
21424;SDS011;10873;51.132;16.848;2022-07-10T03:11:34;3.28;;;1.40;;
21424;SDS011;10873;51.132;16.848;2022-07-10T03:14:00;3.28;;;1.40;;
21424;SDS011;10873;51.132;16.848;2022-07-10T03:16:26;1.63;;;1.50;;
21424;SDS011;10873;51.132;16.848;2022-07-10T03:18:52;1.63;;;1.40;;
21424;SDS011;10873;51.132;16.848;2022-07-10T03:21:20;2.20;;;1.50;;
21424;SDS011;10873;51.132;16.848;2022-07-10T03:23:46;1.52;;;1.40;;
21424;SDS011;10873;51.132;16.848;2022-07-10T03:26:12;1.55;;;1.40;;
21424;SDS011;10873;51.132;16.848;2022-07-10T03:28:39;1.65;;;1.48;;
21424;SDS011;10873;51.132;16.848;2022-07-10T03:31:05;1.48;;;1.38;;
21424;SDS011;10873;51.132;16.848;2022-07-10T03:33:31;2.20;;;1.38;;
21424;SDS011;10873;51.132;16.848;2022-07-10T03:35:57;1.92;;;1.52;;
21424;SDS011;10873;51.132;16.848;2022-07-10T03:38:24;2.10;;;1.40;;
21424;SDS011;10873;51.132;16.848;2022-07-10T03:40:50;1.38;;;1.27;;
21424;SDS011;10873;51.132;16.848;2022-07-10T03:43:17;2.33;;;1.40;;
21424;SDS011;10873;51.132;16.848;2022-07-10T03:45:43;2.67;;;1.50;;
21424;SDS011;10873;51.132;16.848;2022-07-10T03:48:09;1.67;;;1.10;;
21424;SDS011;10873;51.132;16.848;2022-07-10T03:50:35;1.42;;;1.30;;
21424;SDS011;10873;51.132;16.848;2022-07-10T03:53:01;1.63;;;1.50;;
21424;SDS011;10873;51.132;16.848;2022-07-10T03:55:29;1.50;;;1.40;;
21424;SDS011;10873;51.132;16.848;2022-07-10T03:57:55;1.50;;;1.40;;
21424;SDS011;10873;51.132;16.848;2022-07-10T04:00:23;1.73;;;1.30;;
21424;SDS011;10873;51.132;16.848;2022-07-10T04:02:56;1.55;;;1.27;;
21424;SDS011;10873;51.132;16.848;2022-07-10T04:05:23;2.05;;;1.30;;
21424;SDS011;10873;51.132;16.848;2022-07-10T04:07:49;2.90;;;1.27;;
21424;SDS011;10873;51.132;16.848;2022-07-10T04:10:15;1.40;;;1.30;;
21424;SDS011;10873;51.132;16.848;2022-07-10T04:12:43;1.58;;;1.40;;
21424;SDS011;10873;51.132;16.848;2022-07-10T04:15:09;2.28;;;1.20;;
21424;SDS011;10873;51.132;16.848;2022-07-10T04:17:36;1.40;;;1.23;;
21424;SDS011;10873;51.132;16.848;2022-07-10T04:20:02;1.67;;;1.42;;
21424;SDS011;10873;51.132;16.848;2022-07-10T04:22:29;1.40;;;1.30;;
21424;SDS011;10873;51.132;16.848;2022-07-10T04:24:55;1.40;;;1.30;;
21424;SDS011;10873;51.132;16.848;2022-07-10T04:27:21;2.28;;;1.30;;
21424;SDS011;10873;51.132;16.848;2022-07-10T04:29:49;2.28;;;1.23;;
21424;SDS011;10873;51.132;16.848;2022-07-10T04:32:15;2.22;;;1.30;;
21424;SDS011;10873;51.132;16.848;2022-07-10T04:34:41;1.73;;;1.30;;
21424;SDS011;10873;51.132;16.848;2022-07-10T04:37:07;6.43;;;1.60;;
21424;SDS011;10873;51.132;16.848;2022-07-10T04:39:34;15.20;;;1.50;;
21424;SDS011;10873;51.132;16.848;2022-07-10T04:42:00;12.35;;;1.65;;
21424;SDS011;10873;51.132;16.848;2022-07-10T04:44:27;3.30;;;1.30;;
21424;SDS011;10873;51.132;16.848;2022-07-10T04:46:54;2.35;;;1.10;;
21424;SDS011;10873;51.132;16.848;2022-07-10T04:49:20;2.75;;;1.20;;
21424;SDS011;10873;51.132;16.848;2022-07-10T04:51:46;2.00;;;1.40;;
21424;SDS011;10873;51.132;16.848;2022-07-10T04:54:12;2.58;;;1.40;;
21424;SDS011;10873;51.132;16.848;2022-07-10T04:56:39;1.77;;;1.38;;
21424;SDS011;10873;51.132;16.848;2022-07-10T04:59:05;1.52;;;1.10;;
21424;SDS011;10873;51.132;16.848;2022-07-10T05:01:31;3.83;;;1.40;;
21424;SDS011;10873;51.132;16.848;2022-07-10T05:03:59;2.65;;;1.35;;
21424;SDS011;10873;51.132;16.848;2022-07-10T05:06:24;4.93;;;1.50;;
21424;SDS011;10873;51.132;16.848;2022-07-10T05:08:50;2.30;;;1.30;;
21424;SDS011;10873;51.132;16.848;2022-07-10T05:11:17;2.88;;;1.30;;
21424;SDS011;10873;51.132;16.848;2022-07-10T05:13:43;7.15;;;1.25;;
21424;SDS011;10873;51.132;16.848;2022-07-10T05:16:11;1.60;;;1.15;;
21424;SDS011;10873;51.132;16.848;2022-07-10T05:18:38;1.42;;;1.27;;
21424;SDS011;10873;51.132;16.848;2022-07-10T05:21:06;2.83;;;1.10;;
21424;SDS011;10873;51.132;16.848;2022-07-10T05:23:32;1.58;;;1.20;;
21424;SDS011;10873;51.132;16.848;2022-07-10T05:25:58;2.25;;;1.40;;
21424;SDS011;10873;51.132;16.848;2022-07-10T05:28:24;2.05;;;1.30;;
21424;SDS011;10873;51.132;16.848;2022-07-10T05:30:50;1.15;;;0.90;;
21424;SDS011;10873;51.132;16.848;2022-07-10T05:33:17;3.13;;;1.10;;
21424;SDS011;10873;51.132;16.848;2022-07-10T05:35:43;6.30;;;1.20;;
21424;SDS011;10873;51.132;16.848;2022-07-10T05:38:11;2.95;;;1.30;;
21424;SDS011;10873;51.132;16.848;2022-07-10T05:40:37;2.47;;;1.10;;
21424;SDS011;10873;51.132;16.848;2022-07-10T05:43:03;1.98;;;1.35;;
21424;SDS011;10873;51.132;16.848;2022-07-10T05:45:29;2.10;;;1.30;;
21424;SDS011;10873;51.132;16.848;2022-07-10T05:47:55;2.03;;;1.08;;
21424;SDS011;10873;51.132;16.848;2022-07-10T05:50:22;3.13;;;1.10;;
21424;SDS011;10873;51.132;16.848;2022-07-10T05:52:48;2.03;;;1.20;;
21424;SDS011;10873;51.132;16.848;2022-07-10T05:55:15;2.03;;;1.25;;
21424;SDS011;10873;51.132;16.848;2022-07-10T05:57:41;2.78;;;1.30;;
21424;SDS011;10873;51.132;16.848;2022-07-10T06:00:08;8.13;;;1.42;;
21424;SDS011;10873;51.132;16.848;2022-07-10T06:02:35;5.45;;;1.23;;
21424;SDS011;10873;51.132;16.848;2022-07-10T06:05:01;5.75;;;1.33;;
21424;SDS011;10873;51.132;16.848;2022-07-10T06:07:27;1.58;;;1.08;;
21424;SDS011;10873;51.132;16.848;2022-07-10T06:09:53;4.00;;;1.20;;
21424;SDS011;10873;51.132;16.848;2022-07-10T06:12:20;2.75;;;1.40;;
21424;SDS011;10873;51.132;16.848;2022-07-10T06:14:46;3.20;;;1.08;;
21424;SDS011;10873;51.132;16.848;2022-07-10T06:17:13;13.57;;;1.70;;
21424;SDS011;10873;51.132;16.848;2022-07-10T06:19:38;7.32;;;2.50;;
21424;SDS011;10873;51.132;16.848;2022-07-10T06:22:05;7.07;;;3.20;;
21424;SDS011;10873;51.132;16.848;2022-07-10T06:24:50;8.82;;;6.38;;
21424;SDS011;10873;51.132;16.848;2022-07-10T06:27:16;15.85;;;9.57;;
21424;SDS011;10873;51.132;16.848;2022-07-10T06:29:43;25.80;;;10.23;;
21424;SDS011;10873;51.132;16.848;2022-07-10T06:32:09;17.67;;;13.75;;
21424;SDS011;10873;51.132;16.848;2022-07-10T06:34:36;24.40;;;15.00;;
21424;SDS011;10873;51.132;16.848;2022-07-10T06:37:02;20.27;;;14.95;;
21424;SDS011;10873;51.132;16.848;2022-07-10T06:39:29;25.05;;;16.92;;
21424;SDS011;10873;51.132;16.848;2022-07-10T06:41:59;20.35;;;14.55;;
21424;SDS011;10873;51.132;16.848;2022-07-10T06:44:25;18.58;;;13.82;;
21424;SDS011;10873;51.132;16.848;2022-07-10T06:46:53;23.50;;;15.48;;
21424;SDS011;10873;51.132;16.848;2022-07-10T06:49:37;24.75;;;17.15;;
21424;SDS011;10873;51.132;16.848;2022-07-10T06:52:05;24.33;;;18.30;;
21424;SDS011;10873;51.132;16.848;2022-07-10T06:54:31;22.40;;;16.98;;
21424;SDS011;10873;51.132;16.848;2022-07-10T06:56:58;21.38;;;15.32;;
21424;SDS011;10873;51.132;16.848;2022-07-10T06:59:24;23.35;;;15.90;;
21424;SDS011;10873;51.132;16.848;2022-07-10T07:01:50;26.98;;;14.95;;
21424;SDS011;10873;51.132;16.848;2022-07-10T07:04:18;22.38;;;12.80;;
21424;SDS011;10873;51.132;16.848;2022-07-10T07:06:45;17.83;;;11.30;;
21424;SDS011;10873;51.132;16.848;2022-07-10T07:09:11;16.10;;;11.02;;
21424;SDS011;10873;51.132;16.848;2022-07-10T07:11:37;28.25;;;11.02;;
21424;SDS011;10873;51.132;16.848;2022-07-10T07:14:03;27.73;;;12.40;;
21424;SDS011;10873;51.132;16.848;2022-07-10T07:16:29;18.30;;;11.45;;
21424;SDS011;10873;51.132;16.848;2022-07-10T07:19:09;21.20;;;12.55;;
21424;SDS011;10873;51.132;16.848;2022-07-10T07:21:36;18.38;;;11.95;;
21424;SDS011;10873;51.132;16.848;2022-07-10T07:24:22;17.35;;;11.27;;
21424;SDS011;10873;51.132;16.848;2022-07-10T07:26:48;16.38;;;10.80;;
21424;SDS011;10873;51.132;16.848;2022-07-10T07:29:14;15.05;;;9.63;;
21424;SDS011;10873;51.132;16.848;2022-07-10T07:31:41;16.75;;;9.95;;
21424;SDS011;10873;51.132;16.848;2022-07-10T07:34:07;16.23;;;9.30;;
21424;SDS011;10873;51.132;16.848;2022-07-10T07:36:34;17.00;;;9.82;;
21424;SDS011;10873;51.132;16.848;2022-07-10T07:39:01;15.45;;;10.73;;
21424;SDS011;10873;51.132;16.848;2022-07-10T07:41:27;14.52;;;9.73;;
21424;SDS011;10873;51.132;16.848;2022-07-10T07:43:53;18.90;;;9.85;;
21424;SDS011;10873;51.132;16.848;2022-07-10T07:46:20;11.23;;;7.53;;
21424;SDS011;10873;51.132;16.848;2022-07-10T07:48:47;11.52;;;7.13;;
21424;SDS011;10873;51.132;16.848;2022-07-10T07:51:13;17.90;;;10.23;;
21424;SDS011;10873;51.132;16.848;2022-07-10T07:53:41;18.00;;;11.00;;
21424;SDS011;10873;51.132;16.848;2022-07-10T07:56:06;15.05;;;10.60;;
21424;SDS011;10873;51.132;16.848;2022-07-10T07:58:32;15.27;;;10.20;;
21424;SDS011;10873;51.132;16.848;2022-07-10T08:00:59;19.77;;;9.52;;
21424;SDS011;10873;51.132;16.848;2022-07-10T08:03:25;18.30;;;9.85;;
21424;SDS011;10873;51.132;16.848;2022-07-10T08:05:51;16.55;;;8.80;;
21424;SDS011;10873;51.132;16.848;2022-07-10T08:08:17;16.15;;;8.43;;
21424;SDS011;10873;51.132;16.848;2022-07-10T08:10:45;18.38;;;8.00;;
21424;SDS011;10873;51.132;16.848;2022-07-10T08:13:11;14.05;;;7.78;;
21424;SDS011;10873;51.132;16.848;2022-07-10T08:15:38;14.43;;;6.75;;
21424;SDS011;10873;51.132;16.848;2022-07-10T08:18:04;13.43;;;6.28;;
21424;SDS011;10873;51.132;16.848;2022-07-10T08:20:30;11.15;;;6.63;;
21424;SDS011;10873;51.132;16.848;2022-07-10T08:22:57;9.50;;;5.78;;
21424;SDS011;10873;51.132;16.848;2022-07-10T08:25:23;16.45;;;6.32;;
21424;SDS011;10873;51.132;16.848;2022-07-10T08:27:51;12.38;;;6.18;;
21424;SDS011;10873;51.132;16.848;2022-07-10T08:30:18;13.40;;;5.22;;
21424;SDS011;10873;51.132;16.848;2022-07-10T08:32:44;12.18;;;4.93;;
21424;SDS011;10873;51.132;16.848;2022-07-10T08:35:10;15.40;;;5.45;;
21424;SDS011;10873;51.132;16.848;2022-07-10T08:37:39;8.73;;;5.10;;
21424;SDS011;10873;51.132;16.848;2022-07-10T08:40:06;10.98;;;5.10;;
21424;SDS011;10873;51.132;16.848;2022-07-10T08:42:34;9.43;;;4.30;;
21424;SDS011;10873;51.132;16.848;2022-07-10T08:45:02;17.90;;;3.97;;
21424;SDS011;10873;51.132;16.848;2022-07-10T08:47:28;8.75;;;3.88;;
21424;SDS011;10873;51.132;16.848;2022-07-10T08:49:56;9.45;;;4.00;;
21424;SDS011;10873;51.132;16.848;2022-07-10T08:52:25;9.95;;;4.07;;
21424;SDS011;10873;51.132;16.848;2022-07-10T08:54:52;6.65;;;3.42;;
21424;SDS011;10873;51.132;16.848;2022-07-10T08:57:19;8.55;;;3.80;;
21424;SDS011;10873;51.132;16.848;2022-07-10T08:59:47;8.45;;;3.30;;
21424;SDS011;10873;51.132;16.848;2022-07-10T09:02:15;4.78;;;3.20;;
21424;SDS011;10873;51.132;16.848;2022-07-10T09:04:41;7.63;;;3.10;;
21424;SDS011;10873;51.132;16.848;2022-07-10T09:07:07;6.95;;;3.22;;
21424;SDS011;10873;51.132;16.848;2022-07-10T09:09:37;9.88;;;3.10;;
21424;SDS011;10873;51.132;16.848;2022-07-10T09:12:18;5.25;;;3.00;;
21424;SDS011;10873;51.132;16.848;2022-07-10T09:14:44;5.25;;;2.72;;
21424;SDS011;10873;51.132;16.848;2022-07-10T09:17:10;4.10;;;2.00;;
21424;SDS011;10873;51.132;16.848;2022-07-10T09:19:38;3.97;;;1.88;;
21424;SDS011;10873;51.132;16.848;2022-07-10T09:22:05;6.65;;;1.75;;
21424;SDS011;10873;51.132;16.848;2022-07-10T09:24:34;5.38;;;1.58;;
21424;SDS011;10873;51.132;16.848;2022-07-10T09:27:02;6.20;;;1.70;;
21424;SDS011;10873;51.132;16.848;2022-07-10T09:29:29;3.70;;;1.35;;
21424;SDS011;10873;51.132;16.848;2022-07-10T09:31:55;2.15;;;1.38;;
21424;SDS011;10873;51.132;16.848;2022-07-10T09:34:35;5.65;;;1.40;;
21424;SDS011;10873;51.132;16.848;2022-07-10T09:37:22;2.83;;;1.38;;
21424;SDS011;10873;51.132;16.848;2022-07-10T09:39:53;2.72;;;1.10;;
21424;SDS011;10873;51.132;16.848;2022-07-10T09:42:24;2.60;;;1.20;;
21424;SDS011;10873;51.132;16.848;2022-07-10T09:45:14;2.08;;;1.10;;
21424;SDS011;10873;51.132;16.848;2022-07-10T09:47:42;3.25;;;1.00;;
21424;SDS011;10873;51.132;16.848;2022-07-10T09:50:20;2.25;;;0.90;;
21424;SDS011;10873;51.132;16.848;2022-07-10T09:52:49;2.67;;;1.15;;
21424;SDS011;10873;51.132;16.848;2022-07-10T09:55:17;1.92;;;0.90;;
21424;SDS011;10873;51.132;16.848;2022-07-10T09:57:44;2.33;;;0.95;;
21424;SDS011;10873;51.132;16.848;2022-07-10T10:00:14;1.67;;;0.75;;
21424;SDS011;10873;51.132;16.848;2022-07-10T10:02:41;1.55;;;1.10;;
21424;SDS011;10873;51.132;16.848;2022-07-10T10:05:07;4.20;;;2.58;;
21424;SDS011;10873;51.132;16.848;2022-07-10T10:07:35;5.68;;;2.10;;
21424;SDS011;10873;51.132;16.848;2022-07-10T10:10:04;1.95;;;1.50;;
21424;SDS011;10873;51.132;16.848;2022-07-10T10:12:34;5.32;;;2.03;;
21424;SDS011;10873;51.132;16.848;2022-07-10T10:15:10;2.67;;;1.85;;
21424;SDS011;10873;51.132;16.848;2022-07-10T10:17:37;4.32;;;1.92;;
21424;SDS011;10873;51.132;16.848;2022-07-10T10:20:06;4.65;;;1.70;;
21424;SDS011;10873;51.132;16.848;2022-07-10T10:22:53;4.70;;;2.17;;
21424;SDS011;10873;51.132;16.848;2022-07-10T10:25:20;4.80;;;2.05;;
21424;SDS011;10873;51.132;16.848;2022-07-10T10:27:48;3.63;;;1.80;;
21424;SDS011;10873;51.132;16.848;2022-07-10T10:30:16;4.65;;;2.10;;
21424;SDS011;10873;51.132;16.848;2022-07-10T10:32:42;4.95;;;1.92;;
21424;SDS011;10873;51.132;16.848;2022-07-10T10:35:09;6.25;;;2.58;;
21424;SDS011;10873;51.132;16.848;2022-07-10T10:37:36;4.22;;;2.20;;
21424;SDS011;10873;51.132;16.848;2022-07-10T10:40:05;2.83;;;1.70;;
21424;SDS011;10873;51.132;16.848;2022-07-10T10:42:33;4.50;;;1.70;;
21424;SDS011;10873;51.132;16.848;2022-07-10T10:47:57;2.38;;;1.33;;
21424;SDS011;10873;51.132;16.848;2022-07-10T10:50:35;3.20;;;1.40;;
21424;SDS011;10873;51.132;16.848;2022-07-10T10:53:03;2.53;;;1.27;;
21424;SDS011;10873;51.132;16.848;2022-07-10T10:55:30;2.42;;;1.10;;
21424;SDS011;10873;51.132;16.848;2022-07-10T10:58:11;3.08;;;1.48;;
21424;SDS011;10873;51.132;16.848;2022-07-10T11:00:39;6.68;;;4.50;;
21424;SDS011;10873;51.132;16.848;2022-07-10T11:03:16;6.80;;;4.80;;
21424;SDS011;10873;51.132;16.848;2022-07-10T11:05:45;8.65;;;4.20;;
21424;SDS011;10873;51.132;16.848;2022-07-10T11:08:12;5.03;;;3.15;;
21424;SDS011;10873;51.132;16.848;2022-07-10T11:10:41;5.32;;;2.58;;
21424;SDS011;10873;51.132;16.848;2022-07-10T11:13:09;4.60;;;2.45;;
21424;SDS011;10873;51.132;16.848;2022-07-10T11:15:36;4.35;;;2.25;;
21424;SDS011;10873;51.132;16.848;2022-07-10T11:18:04;5.72;;;2.13;;
21424;SDS011;10873;51.132;16.848;2022-07-10T11:20:33;4.57;;;2.03;;
21424;SDS011;10873;51.132;16.848;2022-07-10T11:23:06;5.35;;;1.70;;
21424;SDS011;10873;51.132;16.848;2022-07-10T11:25:50;3.22;;;1.60;;
21424;SDS011;10873;51.132;16.848;2022-07-10T11:28:34;6.00;;;1.45;;
21424;SDS011;10873;51.132;16.848;2022-07-10T11:31:12;6.38;;;1.40;;
21424;SDS011;10873;51.132;16.848;2022-07-10T11:33:38;7.25;;;1.58;;
21424;SDS011;10873;51.132;16.848;2022-07-10T11:36:09;4.20;;;1.65;;
21424;SDS011;10873;51.132;16.848;2022-07-10T11:38:39;5.50;;;1.42;;
21424;SDS011;10873;51.132;16.848;2022-07-10T11:41:13;3.53;;;1.42;;
21424;SDS011;10873;51.132;16.848;2022-07-10T11:43:45;5.90;;;1.85;;
21424;SDS011;10873;51.132;16.848;2022-07-10T11:46:15;5.82;;;1.48;;
21424;SDS011;10873;51.132;16.848;2022-07-10T11:48:41;2.90;;;1.30;;
21424;SDS011;10873;51.132;16.848;2022-07-10T11:51:15;3.63;;;1.77;;
21424;SDS011;10873;51.132;16.848;2022-07-10T11:53:51;5.57;;;1.92;;
21424;SDS011;10873;51.132;16.848;2022-07-10T11:56:20;5.50;;;1.65;;
21424;SDS011;10873;51.132;16.848;2022-07-10T11:58:53;5.45;;;1.90;;
21424;SDS011;10873;51.132;16.848;2022-07-10T12:01:19;9.60;;;1.80;;
21424;SDS011;10873;51.132;16.848;2022-07-10T12:03:52;5.88;;;1.63;;
21424;SDS011;10873;51.132;16.848;2022-07-10T12:06:21;4.00;;;1.73;;
21424;SDS011;10873;51.132;16.848;2022-07-10T12:08:48;5.32;;;1.67;;
21424;SDS011;10873;51.132;16.848;2022-07-10T12:11:15;5.30;;;2.05;;
21424;SDS011;10873;51.132;16.848;2022-07-10T12:13:43;7.30;;;1.92;;
21424;SDS011;10873;51.132;16.848;2022-07-10T12:16:10;5.03;;;1.98;;
21424;SDS011;10873;51.132;16.848;2022-07-10T12:18:36;4.18;;;1.60;;
21424;SDS011;10873;51.132;16.848;2022-07-10T12:21:04;5.43;;;1.70;;
21424;SDS011;10873;51.132;16.848;2022-07-10T12:23:30;6.50;;;1.88;;
21424;SDS011;10873;51.132;16.848;2022-07-10T12:25:56;5.28;;;1.98;;
21424;SDS011;10873;51.132;16.848;2022-07-10T12:28:22;6.40;;;2.15;;
21424;SDS011;10873;51.132;16.848;2022-07-10T12:30:50;7.65;;;1.90;;
21424;SDS011;10873;51.132;16.848;2022-07-10T12:33:18;7.88;;;2.20;;
21424;SDS011;10873;51.132;16.848;2022-07-10T12:35:46;8.20;;;2.67;;
21424;SDS011;10873;51.132;16.848;2022-07-10T12:38:17;10.52;;;1.88;;
21424;SDS011;10873;51.132;16.848;2022-07-10T12:40:43;5.03;;;1.52;;
21424;SDS011;10873;51.132;16.848;2022-07-10T12:43:10;5.78;;;1.50;;
21424;SDS011;10873;51.132;16.848;2022-07-10T12:45:36;3.53;;;1.27;;
21424;SDS011;10873;51.132;16.848;2022-07-10T12:48:04;4.85;;;1.40;;
21424;SDS011;10873;51.132;16.848;2022-07-10T12:50:31;3.08;;;1.23;;
21424;SDS011;10873;51.132;16.848;2022-07-10T12:53:07;3.60;;;1.00;;
21424;SDS011;10873;51.132;16.848;2022-07-10T12:55:34;3.95;;;1.23;;
21424;SDS011;10873;51.132;16.848;2022-07-10T12:58:06;11.05;;;1.60;;
21424;SDS011;10873;51.132;16.848;2022-07-10T13:00:34;8.10;;;1.40;;
21424;SDS011;10873;51.132;16.848;2022-07-10T13:03:02;5.05;;;1.20;;
21424;SDS011;10873;51.132;16.848;2022-07-10T13:05:31;3.83;;;0.90;;
21424;SDS011;10873;51.132;16.848;2022-07-10T13:08:04;2.35;;;0.70;;
21424;SDS011;10873;51.132;16.848;2022-07-10T13:10:42;4.07;;;1.00;;
21424;SDS011;10873;51.132;16.848;2022-07-10T13:13:10;3.78;;;1.00;;
21424;SDS011;10873;51.132;16.848;2022-07-10T13:15:36;6.43;;;0.90;;
21424;SDS011;10873;51.132;16.848;2022-07-10T13:18:13;2.70;;;0.90;;
21424;SDS011;10873;51.132;16.848;2022-07-10T13:20:40;6.60;;;1.33;;
21424;SDS011;10873;51.132;16.848;2022-07-10T13:23:06;2.97;;;0.90;;
21424;SDS011;10873;51.132;16.848;2022-07-10T13:25:33;4.93;;;0.88;;
21424;SDS011;10873;51.132;16.848;2022-07-10T13:27:59;4.93;;;1.00;;
21424;SDS011;10873;51.132;16.848;2022-07-10T13:30:25;2.88;;;0.93;;
21424;SDS011;10873;51.132;16.848;2022-07-10T13:32:51;3.53;;;0.90;;
21424;SDS011;10873;51.132;16.848;2022-07-10T13:35:19;10.80;;;1.30;;
21424;SDS011;10873;51.132;16.848;2022-07-10T13:37:45;3.30;;;0.98;;
21424;SDS011;10873;51.132;16.848;2022-07-10T13:40:12;3.30;;;0.95;;
21424;SDS011;10873;51.132;16.848;2022-07-10T13:42:38;4.07;;;1.10;;
21424;SDS011;10873;51.132;16.848;2022-07-10T13:45:04;5.38;;;0.85;;
21424;SDS011;10873;51.132;16.848;2022-07-10T13:47:33;5.10;;;1.10;;
21424;SDS011;10873;51.132;16.848;2022-07-10T13:49:59;5.10;;;0.90;;
21424;SDS011;10873;51.132;16.848;2022-07-10T13:52:27;2.97;;;0.90;;
21424;SDS011;10873;51.132;16.848;2022-07-10T13:54:53;4.35;;;0.82;;
21424;SDS011;10873;51.132;16.848;2022-07-10T13:57:20;3.88;;;0.90;;
21424;SDS011;10873;51.132;16.848;2022-07-10T13:59:48;3.05;;;0.80;;
21424;SDS011;10873;51.132;16.848;2022-07-10T14:02:14;6.13;;;0.88;;
21424;SDS011;10873;51.132;16.848;2022-07-10T14:04:40;2.20;;;0.77;;
21424;SDS011;10873;51.132;16.848;2022-07-10T14:07:06;5.75;;;0.80;;
21424;SDS011;10873;51.132;16.848;2022-07-10T14:09:34;7.40;;;0.82;;
21424;SDS011;10873;51.132;16.848;2022-07-10T14:12:00;6.25;;;1.17;;
21424;SDS011;10873;51.132;16.848;2022-07-10T14:14:26;7.03;;;1.00;;
21424;SDS011;10873;51.132;16.848;2022-07-10T14:16:53;4.70;;;1.10;;
21424;SDS011;10873;51.132;16.848;2022-07-10T14:19:19;8.10;;;1.23;;
21424;SDS011;10873;51.132;16.848;2022-07-10T14:21:45;2.72;;;0.88;;
21424;SDS011;10873;51.132;16.848;2022-07-10T14:24:11;2.97;;;1.08;;
21424;SDS011;10873;51.132;16.848;2022-07-10T14:26:39;2.58;;;1.08;;
21424;SDS011;10873;51.132;16.848;2022-07-10T14:29:05;4.13;;;0.88;;
21424;SDS011;10873;51.132;16.848;2022-07-10T14:31:32;2.60;;;0.90;;
21424;SDS011;10873;51.132;16.848;2022-07-10T14:33:58;3.22;;;1.02;;
21424;SDS011;10873;51.132;16.848;2022-07-10T14:36:24;2.95;;;0.90;;